Time;durP1;ratioP1;P1;durP2;ratioP2;P2;SDS_P1;SDS_P2;PMS_P1;PMS_P2;Temp;Humidity;BMP_temperature;BMP_pressure;BME280_temperature;BME280_humidity;BME280_pressure;Samples;Min_cycle;Max_cycle;Signal;HPM_P1;HPM_P2
2022/12/31 00:02:21;;;;;;;1.00;0.80;;;;;;;16.55;59.01;99463.09;6135392;23;20571;-85
2022/12/31 00:04:46;;;;;;;1.40;0.80;;;;;;;16.56;59.28;99466.56;6144339;23;20244;-84
2022/12/31 00:07:11;;;;;;;0.90;0.70;;;;;;;16.56;58.89;99458.63;6122453;23;20182;-85
2022/12/31 00:09:37;;;;;;;0.80;0.80;;;;;;;16.51;59.22;99461.69;6121359;23;20193;-84
2022/12/31 00:12:02;;;;;;;1.10;0.83;;;;;;;16.53;59.05;99454.44;6120373;23;20390;-83
2022/12/31 00:14:28;;;;;;;0.93;0.83;;;;;;;16.49;59.37;99447.72;6120805;23;20162;-85
2022/12/31 00:16:53;;;;;;;0.87;0.80;;;;;;;16.48;59.42;99456.66;6121911;23;20188;-84
2022/12/31 00:19:19;;;;;;;1.43;0.80;;;;;;;16.46;59.56;99468.38;6124353;23;20177;-83
2022/12/31 00:21:44;;;;;;;1.83;1.40;;;;;;;16.42;59.52;99470.47;6125321;23;20164;-84
2022/12/31 00:24:10;;;;;;;0.90;0.73;;;;;;;16.43;59.54;99473.97;6124232;23;20159;-84
2022/12/31 00:26:36;;;;;;;2.20;0.70;;;;;;;16.40;59.59;99498.94;6124883;23;20379;-84
2022/12/31 00:29:05;;;;;;;1.20;0.90;;;;;;;16.38;59.70;99499.06;6125241;23;20196;-84
2022/12/31 00:31:34;;;;;;;2.05;0.70;;;;;;;16.37;59.73;99496.56;6125016;23;20439;-84
2022/12/31 00:34:00;;;;;;;2.15;0.90;;;;;;;16.36;59.75;99505.47;6123749;23;20162;-85
2022/12/31 00:36:31;;;;;;;2.00;0.90;;;;;;;16.36;59.56;99503.69;6124850;23;20178;-84
2022/12/31 00:38:58;;;;;;;1.40;0.93;;;;;;;16.36;59.75;99503.69;6124596;23;20172;-83
2022/12/31 00:41:27;;;;;;;0.95;0.82;;;;;;;16.41;59.38;99492.63;6126199;23;20163;-85
2022/12/31 00:43:52;;;;;;;1.00;0.80;;;;;;;16.39;59.37;99497.25;6125138;23;20167;-84
2022/12/31 00:46:19;;;;;;;0.87;0.70;;;;;;;16.41;59.44;99500.59;6123569;23;20623;-85
2022/12/31 00:48:44;;;;;;;1.60;0.90;;;;;;;16.43;59.19;99503.94;6124152;23;20180;-84
2022/12/31 00:51:12;;;;;;;2.57;2.40;;;;;;;16.45;59.22;99504.66;6124408;23;20160;-84
2022/12/31 00:53:38;;;;;;;0.90;0.70;;;;;;;16.51;59.00;99504.09;6124410;23;20243;-84
2022/12/31 00:56:14;;;;;;;0.90;0.80;;;;;;;16.55;58.73;99516.13;6124825;23;20155;-84
2022/12/31 00:58:40;;;;;;;2.95;0.98;;;;;;;16.57;58.80;99508.84;6115884;23;20481;-84
2022/12/31 01:01:10;;;;;;;2.35;1.15;;;;;;;16.64;58.49;99510.97;6093491;23;20338;-84
2022/12/31 01:03:35;;;;;;;4.10;0.80;;;;;;;16.64;58.45;99497.69;6090086;23;20235;-85
2022/12/31 01:06:01;;;;;;;1.20;0.77;;;;;;;16.70;58.27;99513.88;6091730;23;20596;-84
2022/12/31 01:08:26;;;;;;;0.70;0.60;;;;;;;16.72;58.02;99503.97;6091874;23;20190;-84
2022/12/31 01:13:35;;;;;;;1.40;1.20;;;;;;;16.78;57.89;99524.66;6089018;23;20259;-84
2022/12/31 01:16:09;;;;;;;1.53;1.30;;;;;;;16.82;57.91;99525.22;6092357;23;20161;-84
2022/12/31 01:18:35;;;;;;;1.90;1.07;;;;;;;16.83;57.85;99526.06;6091320;23;20192;-84
2022/12/31 01:21:02;;;;;;;1.77;1.10;;;;;;;16.83;57.93;99532.22;6093271;23;20455;-85
2022/12/31 01:23:28;;;;;;;4.43;1.17;;;;;;;16.82;58.12;99533.16;6095101;23;20179;-84
2022/12/31 01:25:54;;;;;;;1.00;0.90;;;;;;;16.83;58.14;99537.53;6093450;23;20161;-85
2022/12/31 01:28:19;;;;;;;2.70;1.63;;;;;;;16.83;57.99;99540.16;6092304;23;20602;-84
2022/12/31 01:30:45;;;;;;;3.50;1.13;;;;;;;16.84;57.92;99544.47;6098548;23;20158;-85
2022/12/31 01:33:11;;;;;;;1.10;0.80;;;;;;;16.85;57.99;99548.84;6091977;23;20193;-84
2022/12/31 01:35:36;;;;;;;1.57;0.87;;;;;;;16.91;57.78;99553.56;6095379;23;20443;-84
2022/12/31 01:38:04;;;;;;;1.57;0.90;;;;;;;16.95;57.70;99554.97;6095634;23;20224;-84
2022/12/31 01:40:29;;;;;;;1.15;0.90;;;;;;;16.99;57.58;99559.03;6093473;23;20162;-85
2022/12/31 01:42:56;;;;;;;0.90;0.80;;;;;;;17.01;57.56;99570.34;6092380;23;20551;-84
2022/12/31 01:45:22;;;;;;;0.85;0.80;;;;;;;16.98;57.76;99565.28;6095058;23;20169;-84
2022/12/31 01:47:52;;;;;;;1.17;0.90;;;;;;;16.95;57.98;99570.88;6094439;23;20159;-85
2022/12/31 01:50:26;;;;;;;1.10;0.95;;;;;;;16.96;58.05;99566.44;6091469;23;20478;-85
2022/12/31 01:52:55;;;;;;;0.88;0.85;;;;;;;16.90;58.29;99570.44;6091573;23;20192;-85
2022/12/31 01:55:34;;;;;;;1.00;0.80;;;;;;;16.89;58.52;99578.56;6093466;23;20222;-84
2022/12/31 01:58:10;;;;;;;0.73;0.73;;;;;;;16.88;58.67;99583.03;6093058;23;20395;-85
2022/12/31 02:00:36;;;;;;;0.88;0.82;;;;;;;16.87;59.00;99588.47;6121304;23;20181;-85
2022/12/31 02:03:06;;;;;;;1.70;0.73;;;;;;;16.81;59.16;99580.09;6124135;23;20500;-83
2022/12/31 02:05:37;;;;;;;0.70;0.60;;;;;;;16.81;59.29;99590.69;6123543;23;20167;-84
2022/12/31 02:08:04;;;;;;;0.80;0.80;;;;;;;16.80;59.26;99585.53;6121275;23;20161;-84
2022/12/31 02:10:29;;;;;;;2.05;0.80;;;;;;;16.78;59.60;99592.81;6121092;23;20186;-84
2022/12/31 02:12:55;;;;;;;1.00;0.80;;;;;;;16.74;59.63;99588.69;6122211;23;20167;-85
2022/12/31 02:15:30;;;;;;;1.47;0.70;;;;;;;16.73;60.08;99603.78;6123521;23;20205;-84
2022/12/31 02:18:14;;;;;;;4.45;0.80;;;;;;;16.69;60.48;99591.78;6121764;23;20182;-85
2022/12/31 02:21:25;;;;;;;1.20;0.80;;;;;;;16.65;60.75;99586.88;6120949;23;20163;-84
2022/12/31 02:24:28;;;;;;;1.15;0.90;;;;;;;16.61;60.95;99562.47;6117663;23;20170;-84
2022/12/31 02:26:58;;;;;;;0.80;0.80;;;;;;;16.57;60.89;99571.66;6121368;23;20181;-84
2022/12/31 02:29:47;;;;;;;1.52;0.80;;;;;;;16.53;61.28;99573.75;6120888;23;20526;-85
2022/12/31 02:32:20;;;;;;;1.10;1.05;;;;;;;16.45;61.62;99589.50;6124853;23;20172;-85
2022/12/31 02:34:51;;;;;;;0.75;0.70;;;;;;;16.46;61.67;99580.56;6124068;23;20167;-85
2022/12/31 02:37:19;;;;;;;1.65;0.80;;;;;;;16.43;61.84;99586.13;6120990;23;20166;-85
2022/12/31 02:39:45;;;;;;;0.73;0.70;;;;;;;16.44;61.90;99595.75;6120562;23;20177;-85
2022/12/31 02:42:11;;;;;;;1.65;0.90;;;;;;;16.43;61.97;99595.91;6122764;23;20157;-84
2022/12/31 02:44:39;;;;;;;0.90;0.80;;;;;;;16.39;62.24;99590.03;6121070;23;20162;-84
2022/12/31 02:47:07;;;;;;;1.30;0.70;;;;;;;16.37;62.40;99592.81;6126608;23;20605;-85
2022/12/31 02:49:51;;;;;;;0.70;0.70;;;;;;;16.37;62.59;99594.63;6120518;23;20202;-85
2022/12/31 02:52:38;;;;;;;1.20;0.90;;;;;;;16.34;62.80;99605.50;6120567;23;20164;-84
2022/12/31 02:55:27;;;;;;;1.50;0.77;;;;;;;16.30;63.03;99606.75;6120974;23;20216;-85
2022/12/31 02:58:01;;;;;;;1.20;0.98;;;;;;;16.27;63.23;99607.84;6125355;23;20158;-84
2022/12/31 03:03:18;;;;;;;1.33;0.98;;;;;;;16.18;63.87;99599.88;6134788;23;20162;-84
2022/12/31 03:05:44;;;;;;;1.40;0.85;;;;;;;16.17;63.79;99600.84;6139136;23;20169;-85
2022/12/31 03:08:09;;;;;;;2.10;1.02;;;;;;;16.11;64.00;99595.09;6121285;23;20198;-84
2022/12/31 03:10:35;;;;;;;1.93;0.90;;;;;;;16.07;64.11;99601.63;6122381;23;20193;-85
2022/12/31 03:13:01;;;;;;;1.47;1.00;;;;;;;16.02;64.47;99587.13;6120672;23;20159;-85
2022/12/31 03:15:32;;;;;;;1.20;0.83;;;;;;;15.98;64.55;99580.38;6120655;23;20394;-85
2022/12/31 03:18:04;;;;;;;1.42;0.85;;;;;;;15.92;64.64;99572.00;6122173;23;20157;-84
2022/12/31 03:23:26;;;;;;;1.15;1.00;;;;;;;15.78;65.17;99579.47;6118351;23;20202;-84
2022/12/31 03:25:52;;;;;;;1.90;0.80;;;;;;;15.72;65.37;99574.72;6119551;23;20227;-85
2022/12/31 03:28:20;;;;;;;1.13;1.03;;;;;;;15.67;65.61;99567.13;6121001;23;20600;-84
2022/12/31 03:30:48;;;;;;;1.27;0.80;;;;;;;15.62;65.71;99571.97;6120890;23;20216;-85
2022/12/31 03:33:14;;;;;;;0.85;0.85;;;;;;;15.56;65.88;99568.03;6120840;23;20157;-85
2022/12/31 03:35:41;;;;;;;1.00;0.90;;;;;;;15.50;65.85;99568.56;6123471;23;20232;-85
2022/12/31 03:38:07;;;;;;;1.00;0.90;;;;;;;15.45;66.19;99579.53;6123795;23;20160;-84
2022/12/31 03:40:40;;;;;;;1.20;0.80;;;;;;;15.39;66.36;99577.41;6121841;23;20450;-84
2022/12/31 03:43:05;;;;;;;0.80;0.70;;;;;;;15.34;66.44;99586.66;6120668;23;20385;-85
2022/12/31 03:45:30;;;;;;;1.63;0.90;;;;;;;15.30;66.64;99590.56;6120354;23;20554;-85
2022/12/31 03:47:56;;;;;;;0.73;0.73;;;;;;;15.27;66.65;99589.00;6120932;23;20162;-85
2022/12/31 03:50:23;;;;;;;0.70;0.70;;;;;;;15.24;66.83;99587.44;6121462;23;20691;-84
2022/12/31 03:52:48;;;;;;;1.10;0.70;;;;;;;15.24;66.78;99576.88;6125231;23;20165;-84
2022/12/31 03:55:14;;;;;;;2.90;0.80;;;;;;;15.23;66.91;99575.19;6122569;23;20187;-85
2022/12/31 03:57:39;;;;;;;0.87;0.80;;;;;;;15.22;67.05;99572.66;6120705;23;20619;-85
2022/12/31 04:00:09;;;;;;;1.00;0.90;;;;;;;15.21;67.04;99561.25;6119548;23;20483;-83
2022/12/31 04:02:35;;;;;;;0.80;0.80;;;;;;;15.21;67.12;99558.59;6113955;23;20157;-85
2022/12/31 04:05:00;;;;;;;1.30;0.93;;;;;;;15.23;67.03;99569.06;6118993;23;20371;-85
2022/12/31 04:07:26;;;;;;;0.77;0.77;;;;;;;15.23;67.04;99577.00;6118505;23;20188;-85
2022/12/31 04:09:51;;;;;;;1.30;0.80;;;;;;;15.24;67.11;99581.31;6120308;23;20665;-85
2022/12/31 04:12:16;;;;;;;0.93;0.83;;;;;;;15.24;66.85;99591.91;6120874;23;20171;-85
2022/12/31 04:14:42;;;;;;;1.07;0.90;;;;;;;15.23;66.98;99579.66;6093442;23;20158;-85
2022/12/31 04:17:07;;;;;;;1.10;1.00;;;;;;;15.21;66.97;99574.47;6093173;23;20536;-85
2022/12/31 04:19:32;;;;;;;1.00;0.90;;;;;;;15.21;67.11;99566.53;6119348;23;20681;-85
2022/12/31 04:21:58;;;;;;;1.23;0.90;;;;;;;15.19;67.18;99560.53;6118906;23;20197;-85
2022/12/31 04:24:23;;;;;;;0.90;0.80;;;;;;;15.17;67.00;99575.69;6118990;23;20245;-85
2022/12/31 04:26:49;;;;;;;0.80;0.80;;;;;;;15.16;67.17;99576.66;6121735;23;20165;-85
2022/12/31 04:29:14;;;;;;;1.20;0.80;;;;;;;15.15;67.21;99580.28;6118933;23;20188;-85
2022/12/31 04:31:40;;;;;;;1.23;0.80;;;;;;;15.16;67.08;99589.91;6119461;23;20166;-85
2022/12/31 04:34:05;;;;;;;0.80;0.73;;;;;;;15.17;66.92;99580.97;6119028;23;20185;-85
2022/12/31 04:36:31;;;;;;;1.00;0.70;;;;;;;15.19;66.93;99581.69;6118382;23;20165;-84
2022/12/31 04:38:56;;;;;;;1.23;0.80;;;;;;;15.21;66.70;99590.34;6123788;23;20491;-84
2022/12/31 04:41:22;;;;;;;1.03;0.70;;;;;;;15.22;66.70;99599.97;6122278;23;20247;-85
2022/12/31 04:43:53;;;;;;;1.00;0.80;;;;;;;15.31;66.22;99592.22;6120482;23;20149;-85
2022/12/31 04:46:24;;;;;;;0.80;0.80;;;;;;;15.38;65.38;99588.94;6121088;23;20512;-86
2022/12/31 04:48:50;;;;;;;1.27;0.80;;;;;;;15.48;64.85;99584.56;6119685;23;20177;-85
2022/12/31 04:51:15;;;;;;;1.50;1.07;;;;;;;15.58;64.38;99579.34;6123002;23;20214;-85
2022/12/31 04:53:41;;;;;;;0.70;0.63;;;;;;;15.66;64.14;99578.66;6125856;23;20259;-85
2022/12/31 04:56:08;;;;;;;1.23;0.87;;;;;;;15.73;63.87;99590.44;6123987;23;20152;-85
2022/12/31 04:58:36;;;;;;;1.00;0.90;;;;;;;15.80;63.56;99585.47;6125057;23;20379;-85
2022/12/31 05:01:01;;;;;;;1.17;1.08;;;;;;;15.83;63.31;99577.28;6125926;23;20661;-85
2022/12/31 05:03:28;;;;;;;0.87;0.70;;;;;;;15.84;63.22;99578.94;6121392;23;20238;-85
2022/12/31 05:05:58;;;;;;;0.98;0.77;;;;;;;15.82;63.18;99575.56;6120523;23;20175;-85
2022/12/31 05:08:24;;;;;;;1.05;0.85;;;;;;;15.84;63.01;99578.94;6122240;23;20615;-85
2022/12/31 05:10:49;;;;;;;1.10;1.00;;;;;;;15.86;62.85;99563.75;6118885;23;20340;-85
2022/12/31 05:13:15;;;;;;;0.70;0.60;;;;;;;15.90;62.57;99566.03;6121927;23;20162;-85
2022/12/31 05:15:41;;;;;;;0.80;0.70;;;;;;;15.91;62.42;99562.38;6096971;23;20245;-85
2022/12/31 05:18:07;;;;;;;0.87;0.87;;;;;;;15.93;62.43;99562.25;6123491;23;20429;-85
2022/12/31 05:20:33;;;;;;;1.45;1.00;;;;;;;15.91;62.36;99564.19;6125724;23;20928;-85
2022/12/31 05:23:02;;;;;;;0.90;0.80;;;;;;;15.91;62.15;99554.44;6122509;23;20172;-85
2022/12/31 05:25:43;;;;;;;0.82;0.80;;;;;;;15.95;62.11;99573.53;6132341;23;20163;-85
2022/12/31 05:28:12;;;;;;;1.33;0.80;;;;;;;15.94;62.03;99593.06;6129613;23;20165;-85
2022/12/31 05:30:38;;;;;;;0.80;0.77;;;;;;;15.93;62.21;99594.03;6129255;23;20243;-85
2022/12/31 05:33:04;;;;;;;1.20;0.80;;;;;;;15.95;61.89;99596.56;6121821;23;20173;-85
2022/12/31 05:35:30;;;;;;;1.03;0.80;;;;;;;15.95;61.84;99597.38;6119652;23;20610;-85
2022/12/31 05:37:55;;;;;;;1.77;1.00;;;;;;;15.96;61.94;99607.03;6119699;23;20180;-85
2022/12/31 05:40:21;;;;;;;1.60;1.10;;;;;;;15.93;61.92;99613.44;6120103;23;20241;-85
2022/12/31 05:42:46;;;;;;;0.97;0.87;;;;;;;15.92;61.87;99624.97;6060889;23;20296;-85
2022/12/31 05:45:12;;;;;;;1.10;0.80;;;;;;;15.91;61.89;99625.97;6112585;23;20200;-85
2022/12/31 05:47:41;;;;;;;0.90;0.70;;;;;;;15.87;61.95;99619.22;6094376;23;20294;-85
2022/12/31 05:50:08;;;;;;;0.90;0.80;;;;;;;15.85;61.85;99615.03;6096668;23;20533;-85
2022/12/31 05:52:34;;;;;;;1.15;0.77;;;;;;;15.82;62.04;99621.44;6120705;23;20246;-85
2022/12/31 05:55:00;;;;;;;1.57;1.10;;;;;;;15.82;61.88;99612.66;6120743;23;20417;-85
2022/12/31 05:57:25;;;;;;;0.90;0.70;;;;;;;15.83;61.90;99619.66;6124141;23;20431;-85
2022/12/31 05:59:52;;;;;;;0.73;0.70;;;;;;;15.82;61.77;99617.94;6121076;23;20580;-85
2022/12/31 06:02:21;;;;;;;0.82;0.75;;;;;;;15.80;61.70;99618.09;6124284;23;20431;-86
2022/12/31 06:04:47;;;;;;;1.95;1.10;;;;;;;15.84;61.49;99611.56;6121705;23;20477;-85
2022/12/31 06:07:13;;;;;;;0.95;0.85;;;;;;;15.89;61.45;99608.53;6123449;23;20168;-85
2022/12/31 06:09:38;;;;;;;1.00;0.90;;;;;;;15.92;61.28;99603.78;6121180;23;20213;-85
2022/12/31 06:12:04;;;;;;;1.30;0.80;;;;;;;15.97;60.93;99597.28;6120648;23;20383;-85
2022/12/31 06:14:30;;;;;;;1.10;0.67;;;;;;;16.02;60.81;99601.19;6123862;23;20233;-85
2022/12/31 06:16:55;;;;;;;0.93;0.93;;;;;;;16.08;60.59;99603.31;6098339;23;20454;-85
2022/12/31 06:19:21;;;;;;;1.00;0.93;;;;;;;16.10;60.42;99598.72;6127170;23;20181;-85
2022/12/31 06:21:47;;;;;;;1.40;1.10;;;;;;;16.13;60.43;99600.28;6124698;23;20170;-85
2022/12/31 06:24:20;;;;;;;0.80;0.70;;;;;;;16.11;60.31;99596.91;6125388;23;20210;-85
2022/12/31 06:26:50;;;;;;;0.77;0.77;;;;;;;16.13;60.30;99601.09;6094510;23;20436;-85
2022/12/31 06:29:16;;;;;;;1.13;0.70;;;;;;;16.14;60.24;99600.13;6126799;23;20196;-85
2022/12/31 06:31:42;;;;;;;1.13;0.70;;;;;;;16.14;60.24;99597.47;6127589;23;20251;-85
2022/12/31 06:34:11;;;;;;;1.10;1.00;;;;;;;16.13;60.08;99602.91;6126702;23;20187;-85
2022/12/31 06:36:39;;;;;;;1.40;0.80;;;;;;;16.10;60.09;99605.84;6100143;23;20209;-85
2022/12/31 06:39:08;;;;;;;0.90;0.70;;;;;;;16.04;60.42;99604.56;6126591;23;20269;-85
2022/12/31 06:42:37;;;;;;;0.82;0.82;;;;;;;16.03;60.27;99610.81;6126736;23;20232;-85
2022/12/31 06:45:07;;;;;;;0.70;0.60;;;;;;;16.01;60.33;99617.22;6123036;23;20192;-84
2022/12/31 06:47:33;;;;;;;1.23;0.95;;;;;;;16.01;60.34;99627.81;6125148;23;20192;-85
2022/12/31 06:49:58;;;;;;;0.80;0.70;;;;;;;16.03;60.25;99637.31;6098451;23;20612;-84
2022/12/31 06:52:27;;;;;;;0.80;0.60;;;;;;;16.01;60.28;99633.94;6124156;23;20402;-85
2022/12/31 06:54:55;;;;;;;0.90;0.70;;;;;;;16.00;60.32;99636.75;6126802;23;20769;-85
2022/12/31 06:57:24;;;;;;;0.80;0.80;;;;;;;15.97;60.34;99647.59;6125918;23;20249;-84
2022/12/31 06:59:50;;;;;;;1.08;0.70;;;;;;;15.93;60.57;99644.34;6122435;23;20196;-85
2022/12/31 07:02:50;;;;;;;0.60;0.60;;;;;;;15.87;60.71;99636.94;6118897;23;20441;-84
2022/12/31 07:05:25;;;;;;;1.20;0.93;;;;;;;15.82;60.95;99633.84;6119597;23;20406;-85
2022/12/31 07:08:06;;;;;;;1.15;0.70;;;;;;;15.81;60.82;99632.19;6119805;23;20189;-85
2022/12/31 07:10:38;;;;;;;0.82;0.68;;;;;;;15.81;60.87;99626.88;6098610;23;20639;-85
2022/12/31 07:13:38;;;;;;;1.33;0.73;;;;;;;15.82;60.74;99639.97;6125049;23;20243;-85
2022/12/31 07:16:07;;;;;;;0.80;0.80;;;;;;;15.87;60.68;99642.25;6097616;23;20172;-85
2022/12/31 07:18:44;;;;;;;2.00;1.50;;;;;;;15.86;60.72;99643.22;6118928;23;20619;-85
2022/12/31 07:21:17;;;;;;;1.17;1.00;;;;;;;15.88;60.66;99642.13;6121086;23;20196;-85
2022/12/31 07:23:42;;;;;;;0.70;0.70;;;;;;;15.90;60.51;99647.28;6093725;23;20205;-85
2022/12/31 07:26:14;;;;;;;0.80;0.80;;;;;;;15.91;60.42;99652.44;6120506;23;20509;-85
2022/12/31 07:28:52;;;;;;;0.80;0.70;;;;;;;15.96;60.42;99656.50;6093986;23;20198;-85
2022/12/31 07:31:44;;;;;;;1.23;0.80;;;;;;;15.99;60.39;99662.41;6119760;23;20166;-85
2022/12/31 07:34:30;;;;;;;1.17;1.00;;;;;;;16.03;60.38;99660.31;6095232;23;20450;-85
2022/12/31 07:37:07;;;;;;;1.00;0.90;;;;;;;16.04;60.37;99659.34;6122668;23;20262;-85
2022/12/31 07:39:42;;;;;;;1.13;0.90;;;;;;;16.07;60.18;99654.63;6120515;23;20186;-85
2022/12/31 07:42:18;;;;;;;1.55;0.90;;;;;;;16.09;60.12;99663.31;6122035;23;20176;-84
2022/12/31 07:45:01;;;;;;;1.20;0.80;;;;;;;16.15;60.08;99653.97;6122783;23;20184;-85
2022/12/31 07:47:28;;;;;;;0.90;0.70;;;;;;;16.17;59.92;99656.47;6124397;23;20168;-84
2022/12/31 07:49:54;;;;;;;1.70;0.85;;;;;;;16.19;59.99;99658.03;6121283;23;20264;-84
2022/12/31 07:52:20;;;;;;;1.60;1.15;;;;;;;16.21;59.93;99661.41;6119796;23;20181;-84
2022/12/31 07:54:46;;;;;;;1.13;1.02;;;;;;;16.23;59.97;99669.19;6119292;23;20179;-85
2022/12/31 07:57:16;;;;;;;1.20;0.90;;;;;;;16.24;59.92;99673.53;6120112;23;20672;-84
2022/12/31 08:00:17;;;;;;;1.67;1.58;;;;;;;16.24;59.82;99674.38;6121290;23;20207;-86
2022/12/31 08:02:45;;;;;;;2.08;1.23;;;;;;;16.25;59.89;99664.59;6082923;23;20269;-86
2022/12/31 08:05:42;;;;;;;2.33;0.90;;;;;;;16.25;59.87;99673.41;6127671;23;20263;-87
2022/12/31 08:08:36;;;;;;;2.25;1.00;;;;;;;16.26;59.93;99682.22;6125307;23;20193;-86
2022/12/31 08:11:10;;;;;;;0.85;0.73;;;;;;;16.29;59.88;99684.59;6125465;23;20202;-86
2022/12/31 08:13:36;;;;;;;1.08;0.98;;;;;;;16.32;59.76;99685.16;6124702;23;20640;-87
2022/12/31 08:16:09;;;;;;;1.42;1.02;;;;;;;16.36;59.79;99689.25;6107865;23;20226;-86
2022/12/31 08:18:35;;;;;;;2.33;1.15;;;;;;;16.41;59.67;99675.56;6098128;23;20210;-87
2022/12/31 08:21:13;;;;;;;2.07;1.83;;;;;;;16.46;59.50;99678.66;6123464;23;20195;-87
2022/12/31 08:24:03;;;;;;;1.70;1.60;;;;;;;16.51;59.54;99679.09;6097454;23;20414;-87
2022/12/31 08:26:43;;;;;;;1.52;0.80;;;;;;;16.56;59.35;99687.50;6122976;23;20220;-86
2022/12/31 08:29:32;;;;;;;1.05;0.90;;;;;;;16.65;59.13;99692.97;6096436;23;20204;-86
2022/12/31 08:32:26;;;;;;;1.10;0.93;;;;;;;16.72;58.80;99687.00;6124055;23;20247;-86
2022/12/31 08:35:21;;;;;;;1.52;1.30;;;;;;;16.79;58.67;99687.31;6134141;23;20221;-86
2022/12/31 08:37:54;;;;;;;1.20;1.10;;;;;;;16.85;58.61;99681.47;6135582;23;20173;-86
2022/12/31 08:40:52;;;;;;;1.85;1.52;;;;;;;16.93;58.35;99686.94;6127458;23;20235;-87
2022/12/31 08:43:39;;;;;;;1.30;1.05;;;;;;;17.01;58.31;99697.72;6125851;23;20179;-85
2022/12/31 08:46:14;;;;;;;0.80;0.80;;;;;;;17.05;58.16;99690.31;6126844;23;20196;-86
2022/12/31 08:48:42;;;;;;;3.08;1.10;;;;;;;17.10;57.96;99697.88;6100679;23;20206;-86
2022/12/31 08:51:18;;;;;;;1.08;0.80;;;;;;;17.18;57.67;99696.19;6125154;23;20168;-86
2022/12/31 08:53:44;;;;;;;1.10;0.90;;;;;;;17.29;57.54;99689.94;6124762;23;20163;-87
2022/12/31 08:56:56;;;;;;;5.27;1.10;;;;;;;17.58;56.93;99683.75;6124992;23;20554;-86
2022/12/31 08:59:28;;;;;;;1.00;0.83;;;;;;;17.96;56.14;99684.72;6062985;23;20808;-86
2022/12/31 09:02:06;;;;;;;1.87;0.90;;;;;;;18.68;54.63;99686.72;6038931;23;20908;-86
2022/12/31 09:05:04;;;;;;;1.30;1.03;;;;;;;19.92;51.52;99676.31;6063109;23;20944;-86
2022/12/31 09:08:15;;;;;;;1.90;1.67;;;;;;;21.11;49.14;99670.19;6066259;23;20398;-87
2022/12/31 09:10:55;;;;;;;1.30;1.20;;;;;;;22.07;47.26;99658.88;6007419;23;20936;-86
2022/12/31 09:13:39;;;;;;;1.50;1.20;;;;;;;22.93;45.87;99649.19;6123113;23;20429;-86
2022/12/31 09:16:29;;;;;;;1.60;1.03;;;;;;;23.58;43.93;99655.97;6125741;23;20383;-86
2022/12/31 09:18:55;;;;;;;1.27;1.10;;;;;;;23.63;44.04;99658.94;6123869;23;20395;-88
2022/12/31 09:23:56;;;;;;;1.10;1.00;;;;;;;23.77;43.09;99647.44;6087875;23;20213;-86
2022/12/31 09:26:44;;;;;;;2.40;1.20;;;;;;;23.27;43.11;99645.31;6094915;23;20395;-85
2022/12/31 09:29:43;;;;;;;2.33;1.20;;;;;;;22.61;44.33;99652.88;6092186;23;20417;-85
2022/12/31 09:32:46;;;;;;;2.03;0.90;;;;;;;21.82;45.64;99661.59;6095320;23;20458;-84
2022/12/31 09:35:24;;;;;;;1.00;0.90;;;;;;;21.30;nan;99666.38;6093478;23;20437;-86
2022/12/31 09:37:55;;;;;;;1.20;0.80;;;;;;;20.71;nan;99664.59;6118035;23;20228;-85
2022/12/31 09:40:58;;;;;;;1.23;1.07;;;;;;;20.22;nan;99669.66;6130574;23;20408;-84
2022/12/31 09:43:38;;;;;;;2.80;0.80;;;;;;;20.07;nan;99674.75;6135654;23;20406;-85
2022/12/31 09:46:22;;;;;;;0.97;0.80;;;;;;;19.99;nan;99672.03;6136562;23;20391;-85
2022/12/31 09:49:30;;;;;;;1.00;0.80;;;;;;;19.74;nan;99681.69;6135031;23;20459;-85
2022/12/31 09:52:14;;;;;;;1.30;1.20;;;;;;;19.54;nan;99686.31;6131588;23;20433;-84
2022/12/31 09:54:53;;;;;;;0.90;0.80;;;;;;;19.52;nan;99693.59;6135615;23;20388;-84
2022/12/31 09:57:26;;;;;;;1.07;0.90;;;;;;;19.77;nan;99686.72;6136896;23;20413;-85
2022/12/31 10:00:13;;;;;;;1.87;1.20;;;;;;;20.50;nan;99683.66;6136337;23;20482;-84
2022/12/31 10:03:26;;;;;;;0.90;0.87;;;;;;;21.57;nan;99676.78;6134397;23;20388;-85
2022/12/31 10:06:15;;;;;;;1.10;0.90;;;;;;;22.69;nan;99667.06;6135405;23;20392;-85
2022/12/31 10:09:15;;;;;;;1.67;1.10;;;;;;;23.69;nan;99652.03;6135384;23;20403;-85
2022/12/31 10:11:56;;;;;;;4.80;3.17;;;;;;;24.14;nan;99652.94;6121943;23;20392;-85
2022/12/31 10:14:33;;;;;;;2.10;1.70;;;;;;;24.27;nan;99656.63;6134438;23;20760;-86
2022/12/31 10:17:22;;;;;;;1.30;1.20;;;;;;;24.27;nan;99647.75;6134152;23;20412;-85
2022/12/31 10:20:07;;;;;;;1.77;0.97;;;;;;;23.91;nan;99648.47;6133097;23;20488;-84
2022/12/31 10:22:44;;;;;;;1.00;0.80;;;;;;;23.36;nan;99647.75;6134565;23;20403;-85
2022/12/31 10:25:46;;;;;;;2.17;0.90;;;;;;;22.82;nan;99655.78;6134475;23;20474;-85
2022/12/31 10:28:44;;;;;;;1.27;0.90;;;;;;;22.34;nan;99656.84;6158548;23;20419;-85
2022/12/31 10:31:15;;;;;;;4.00;0.80;;;;;;;21.82;nan;99652.75;6133384;23;20548;-85
2022/12/31 10:34:03;;;;;;;0.70;0.60;;;;;;;21.28;nan;99653.22;6134265;23;20475;-85
2022/12/31 10:36:47;;;;;;;2.10;0.90;;;;;;;20.90;nan;99652.81;6133349;23;20408;-85
2022/12/31 10:39:36;;;;;;;1.43;0.80;;;;;;;20.50;nan;99667.66;6157478;23;20432;-85
2022/12/31 10:42:35;;;;;;;1.63;0.90;;;;;;;20.21;nan;99652.00;6135796;23;20392;-85
2022/12/31 10:45:15;;;;;;;1.27;0.70;;;;;;;20.06;nan;99650.91;6136038;23;20399;-85
2022/12/31 10:47:59;;;;;;;1.20;0.90;;;;;;;19.94;nan;99649.50;6135205;23;20667;-85
2022/12/31 10:50:27;;;;;;;0.80;0.70;;;;;;;19.83;nan;99634.59;6135800;23;20403;-86
2022/12/31 10:53:20;;;;;;;1.23;0.80;;;;;;;19.70;nan;99628.84;6136665;23;20372;-85
2022/12/31 10:56:23;;;;;;;2.23;0.80;;;;;;;19.61;nan;99619.94;6137845;23;20419;-85
2022/12/31 10:59:32;;;;;;;1.00;0.83;;;;;;;19.56;nan;99604.41;6136821;23;20374;-85
2022/12/31 11:02:35;;;;;;;0.87;0.70;;;;;;;19.53;nan;99615.38;6129837;23;20391;-85
2022/12/31 11:05:17;;;;;;;1.97;0.80;;;;;;;19.47;nan;99605.34;6136528;23;20384;-86
2022/12/31 11:08:07;;;;;;;1.47;0.80;;;;;;;19.43;nan;99598.63;6134841;23;20754;-85
2022/12/31 11:11:17;;;;;;;2.00;0.73;;;;;;;19.40;nan;99591.78;6135321;23;20388;-85
2022/12/31 11:14:09;;;;;;;1.00;0.90;;;;;;;19.39;nan;99583.97;6123455;23;20389;-85
2022/12/31 11:16:41;;;;;;;1.07;0.70;;;;;;;19.38;nan;99590.28;6136231;23;20470;-86
2022/12/31 11:19:38;;;;;;;0.97;0.87;;;;;;;19.38;nan;99600.94;6135093;23;20466;-84
2022/12/31 11:22:23;;;;;;;0.90;0.80;;;;;;;19.38;nan;99585.78;6135716;23;20407;-84
2022/12/31 11:25:15;;;;;;;2.80;0.97;;;;;;;19.39;nan;99584.81;6137843;23;20713;-85
2022/12/31 11:28:08;;;;;;;1.00;0.90;;;;;;;19.40;nan;99590.97;6135673;23;20427;-84
2022/12/31 11:30:54;;;;;;;1.10;1.00;;;;;;;19.41;nan;99585.47;6136966;23;20387;-85
2022/12/31 11:33:57;;;;;;;1.30;1.20;;;;;;;19.48;nan;99574.22;6134842;23;20397;-86
2022/12/31 11:36:40;;;;;;;1.37;1.03;;;;;;;19.50;nan;99570.41;6132389;23;20392;-86
2022/12/31 11:39:24;;;;;;;2.50;1.00;;;;;;;19.56;nan;99566.28;6106212;23;20468;-85
2022/12/31 11:41:59;;;;;;;1.40;1.10;;;;;;;19.60;nan;99565.78;6104498;23;20409;-85
2022/12/31 11:44:48;;;;;;;1.30;1.20;;;;;;;19.66;nan;99549.22;6106186;23;20396;-85
2022/12/31 11:47:28;;;;;;;1.50;1.20;;;;;;;19.70;nan;99547.06;6105090;23;20402;-85
2022/12/31 11:50:12;;;;;;;1.33;0.97;;;;;;;19.73;nan;99549.41;6106928;23;20389;-85
2022/12/31 11:53:03;;;;;;;1.93;1.10;;;;;;;19.73;nan;99552.06;6105690;23;20409;-85
2022/12/31 11:55:37;;;;;;;2.83;1.10;;;;;;;19.74;nan;99548.44;6080858;23;20401;-85
2022/12/31 11:58:27;;;;;;;1.27;1.00;;;;;;;19.75;nan;99544.78;6079357;23;20405;-85
2022/12/31 12:01:02;;;;;;;4.47;1.10;;;;;;;19.76;nan;99550.94;6105097;23;20425;-86
2022/12/31 12:03:28;;;;;;;1.60;1.33;;;;;;;19.76;nan;99557.09;6105855;23;20381;-85
2022/12/31 12:05:57;;;;;;;1.23;0.90;;;;;;;19.77;nan;99553.44;6106422;23;20396;-86
2022/12/31 12:08:25;;;;;;;1.60;1.00;;;;;;;19.79;nan;99551.44;6104893;23;20235;-85
2022/12/31 12:11:19;;;;;;;0.90;0.90;;;;;;;19.81;nan;99559.28;6080194;23;20401;-86
2022/12/31 12:13:45;;;;;;;2.10;0.90;;;;;;;19.80;nan;99547.78;6090657;23;20475;-82
2022/12/31 12:16:10;;;;;;;1.07;0.90;;;;;;;19.80;nan;99547.78;6091004;23;20490;-83
2022/12/31 12:19:10;;;;;;;2.30;1.43;;;;;;;19.81;nan;99537.97;6094054;23;20400;-84
2022/12/31 12:21:48;;;;;;;0.80;0.77;;;;;;;19.81;nan;99525.47;6082132;23;20252;-83
2022/12/31 12:24:22;;;;;;;1.07;0.97;;;;;;;19.80;nan;99520.31;6094114;23;20397;-83